Terminal Aerodrome Forecast
Issued by NWS Northern Indiana

Home | Current Version | Previous Version | Graphics & Text | Print | Product List | Glossary On
Versions: 1 2 3 4 5 6 7 8 9 10 11 12 13
000
FTUS43 KIWX 252300
TAFFWA
TAF
KFWA 252340Z 2600/2624 08007KT P6SM BKN080
     FM260500 06009KT 3SM -SN BKN025
      TEMPO 2607/2611 2SM -SN
     FM261600 03010KT P6SM OVC030
     FM261800 03010KT P6SM BKN035=

USA.gov is the U.S. government's official web portal to all federal, state and local government web resources and services.